sensor_id;sensor_type;location;lat;lon;timestamp;pressure;altitude;pressure_sealevel;temperature;humidity
13765;BME280;6953;48.810;9.204;2023-02-14T00:01:34;100614.75;;;2.26;100.00
13765;BME280;6953;48.810;9.204;2023-02-14T00:03:59;100643.44;;;2.45;100.00
13765;BME280;6953;48.810;9.204;2023-02-14T00:06:26;100346.69;;;0.80;100.00
13765;BME280;6953;48.810;9.204;2023-02-14T00:08:51;100637.34;;;2.39;100.00
13765;BME280;6953;48.810;9.204;2023-02-14T00:11:19;100564.28;;;1.88;100.00
13765;BME280;6953;48.810;9.204;2023-02-14T00:13:45;100645.94;;;2.35;100.00
13765;BME280;6953;48.810;9.204;2023-02-14T00:16:30;100643.28;;;2.30;100.00
13765;BME280;6953;48.810;9.204;2023-02-14T00:18:56;100562.44;;;1.80;100.00
13765;BME280;6953;48.810;9.204;2023-02-14T00:21:29;100640.56;;;2.18;100.00
13765;BME280;6953;48.810;9.204;2023-02-14T00:23:54;100675.00;;;2.13;100.00
13765;BME280;6953;48.810;9.204;2023-02-14T00:26:20;100663.75;;;2.09;100.00
13765;BME280;6953;48.810;9.204;2023-02-14T00:28:45;100643.00;;;2.06;100.00
13765;BME280;6953;48.810;9.204;2023-02-14T00:31:10;100379.00;;;0.52;100.00
13765;BME280;6953;48.810;9.204;2023-02-14T00:33:36;100634.22;;;1.94;100.00
13765;BME280;6953;48.810;9.204;2023-02-14T00:36:03;100606.09;;;1.54;100.00
13765;BME280;6953;48.810;9.204;2023-02-14T00:38:29;100619.38;;;1.78;100.00
13765;BME280;6953;48.810;9.204;2023-02-14T00:40:54;100318.25;;;0.13;100.00
13765;BME280;6953;48.810;9.204;2023-02-14T00:43:19;100642.97;;;2.03;100.00
13765;BME280;6953;48.810;9.204;2023-02-14T00:45:45;100636.94;;;2.03;100.00
13765;BME280;6953;48.810;9.204;2023-02-14T00:48:10;100666.31;;;2.06;100.00
13765;BME280;6953;48.810;9.204;2023-02-14T00:50:35;100604.81;;;1.89;100.00
13765;BME280;6953;48.810;9.204;2023-02-14T00:53:01;100637.88;;;2.11;100.00
13765;BME280;6953;48.810;9.204;2023-02-14T00:55:26;100581.44;;;1.80;100.00
13765;BME280;6953;48.810;9.204;2023-02-14T00:57:51;100638.69;;;2.07;100.00
13765;BME280;6953;48.810;9.204;2023-02-14T01:00:17;100527.44;;;1.39;100.00
13765;BME280;6953;48.810;9.204;2023-02-14T01:02:42;100487.50;;;1.14;100.00
13765;BME280;6953;48.810;9.204;2023-02-14T01:05:07;100558.75;;;1.58;100.00
13765;BME280;6953;48.810;9.204;2023-02-14T01:07:33;100546.59;;;1.51;100.00
13765;BME280;6953;48.810;9.204;2023-02-14T01:09:58;100645.59;;;2.06;100.00
13765;BME280;6953;48.810;9.204;2023-02-14T01:12:23;100655.06;;;2.06;100.00
13765;BME280;6953;48.810;9.204;2023-02-14T01:14:49;100601.16;;;1.72;100.00
13765;BME280;6953;48.810;9.204;2023-02-14T01:17:14;100650.69;;;2.01;100.00
13765;BME280;6953;48.810;9.204;2023-02-14T01:19:39;100649.84;;;2.00;100.00
13765;BME280;6953;48.810;9.204;2023-02-14T01:22:07;100674.88;;;2.04;100.00
13765;BME280;6953;48.810;9.204;2023-02-14T01:24:32;100603.84;;;1.80;100.00
13765;BME280;6953;48.810;9.204;2023-02-14T01:26:57;100643.81;;;2.04;100.00
13765;BME280;6953;48.810;9.204;2023-02-14T01:29:23;100639.53;;;2.06;100.00
13765;BME280;6953;48.810;9.204;2023-02-14T01:31:48;100617.00;;;1.98;100.00
13765;BME280;6953;48.810;9.204;2023-02-14T01:34:13;100607.50;;;1.94;100.00
13765;BME280;6953;48.810;9.204;2023-02-14T01:36:39;100557.16;;;1.69;100.00
13765;BME280;6953;48.810;9.204;2023-02-14T01:39:10;100628.44;;;2.16;100.00
13765;BME280;6953;48.810;9.204;2023-02-14T01:41:37;100658.53;;;2.08;100.00
13765;BME280;6953;48.810;9.204;2023-02-14T01:46:54;100383.38;;;0.56;100.00
13765;BME280;6953;48.810;9.204;2023-02-14T01:49:24;100628.25;;;1.98;100.00
13765;BME280;6953;48.810;9.204;2023-02-14T01:54:42;100601.78;;;1.53;100.00
13765;BME280;6953;48.810;9.204;2023-02-14T01:57:12;100443.19;;;0.86;100.00
13765;BME280;6953;48.810;9.204;2023-02-14T01:59:42;100623.81;;;1.90;100.00
13765;BME280;6953;48.810;9.204;2023-02-14T02:02:10;100563.69;;;1.42;100.00
13765;BME280;6953;48.810;9.204;2023-02-14T02:04:38;100637.59;;;1.89;100.00
13765;BME280;6953;48.810;9.204;2023-02-14T02:07:08;100639.31;;;1.88;100.00
13765;BME280;6953;48.810;9.204;2023-02-14T02:09:47;100608.94;;;1.72;100.00
13765;BME280;6953;48.810;9.204;2023-02-14T02:12:13;100446.44;;;0.73;100.00
13765;BME280;6953;48.810;9.204;2023-02-14T02:14:38;100643.50;;;1.77;100.00
13765;BME280;6953;48.810;9.204;2023-02-14T02:28:31;100075.84;;;-1.60;100.00
13765;BME280;6953;48.810;9.204;2023-02-14T02:33:51;100636.16;;;1.46;100.00
13765;BME280;6953;48.810;9.204;2023-02-14T02:44:43;100632.34;;;1.23;100.00
13765;BME280;6953;48.810;9.204;2023-02-14T02:49:52;100427.22;;;-0.02;100.00
13765;BME280;6953;48.810;9.204;2023-02-14T02:52:47;100407.19;;;-0.16;100.00
13765;BME280;6953;48.810;9.204;2023-02-14T02:58:41;100391.47;;;-0.29;100.00
13765;BME280;6953;48.810;9.204;2023-02-14T03:01:13;100627.78;;;1.06;100.00
13765;BME280;6953;48.810;9.204;2023-02-14T03:03:42;100620.00;;;1.04;100.00
13765;BME280;6953;48.810;9.204;2023-02-14T03:06:29;100330.72;;;-0.64;100.00
13765;BME280;6953;48.810;9.204;2023-02-14T03:08:54;100624.09;;;0.92;100.00
13765;BME280;6953;48.810;9.204;2023-02-14T03:11:20;100574.72;;;0.73;100.00
13765;BME280;6953;48.810;9.204;2023-02-14T03:14:07;100370.66;;;-0.43;100.00
13765;BME280;6953;48.810;9.204;2023-02-14T03:17:03;100637.25;;;1.05;100.00
13765;BME280;6953;48.810;9.204;2023-02-14T03:19:46;100331.50;;;-0.68;100.00
13765;BME280;6953;48.810;9.204;2023-02-14T03:27:53;100681.16;;;1.04;100.00
13765;BME280;6953;48.810;9.204;2023-02-14T03:30:57;100638.00;;;0.99;100.00
13765;BME280;6953;48.810;9.204;2023-02-14T03:33:32;100642.13;;;0.88;100.00
13765;BME280;6953;48.810;9.204;2023-02-14T03:36:47;100640.50;;;0.94;100.00
13765;BME280;6953;48.810;9.204;2023-02-14T03:39:02;100620.44;;;0.78;100.00
13765;BME280;6953;48.810;9.204;2023-02-14T03:41:36;100615.59;;;0.47;100.00
13765;BME280;6953;48.810;9.204;2023-02-14T03:44:06;100570.81;;;0.45;100.00
13765;BME280;6953;48.810;9.204;2023-02-14T03:47:13;100632.50;;;0.79;100.00
13765;BME280;6953;48.810;9.204;2023-02-14T03:49:51;100360.53;;;-0.78;100.00
13765;BME280;6953;48.810;9.204;2023-02-14T03:52:18;100639.22;;;0.70;100.00
13765;BME280;6953;48.810;9.204;2023-02-14T03:54:47;100332.50;;;-1.07;100.00
13765;BME280;6953;48.810;9.204;2023-02-14T03:59:47;100619.69;;;0.36;100.00
13765;BME280;6953;48.810;9.204;2023-02-14T04:02:17;100606.25;;;0.54;100.00
13765;BME280;6953;48.810;9.204;2023-02-14T04:04:47;100302.19;;;-1.22;100.00
13765;BME280;6953;48.810;9.204;2023-02-14T04:07:16;100623.53;;;0.59;100.00
13765;BME280;6953;48.810;9.204;2023-02-14T04:09:42;100643.16;;;0.48;100.00
13765;BME280;6953;48.810;9.204;2023-02-14T04:12:08;100620.91;;;0.55;100.00
13765;BME280;6953;48.810;9.204;2023-02-14T04:14:34;100627.75;;;0.54;100.00
13765;BME280;6953;48.810;9.204;2023-02-14T04:17:00;100576.50;;;0.26;100.00
13765;BME280;6953;48.810;9.204;2023-02-14T04:19:44;100603.53;;;0.48;100.00
13765;BME280;6953;48.810;9.204;2023-02-14T04:22:10;100608.75;;;0.49;100.00
13765;BME280;6953;48.810;9.204;2023-02-14T04:24:35;100355.00;;;-0.98;100.00
13765;BME280;6953;48.810;9.204;2023-02-14T04:27:00;100399.19;;;-0.77;100.00
13765;BME280;6953;48.810;9.204;2023-02-14T04:29:37;100218.66;;;-1.80;100.00
13765;BME280;6953;48.810;9.204;2023-02-14T04:32:05;100326.06;;;-1.29;100.00
13765;BME280;6953;48.810;9.204;2023-02-14T04:34:30;100629.16;;;0.36;100.00
13765;BME280;6953;48.810;9.204;2023-02-14T04:36:56;100643.75;;;0.34;100.00
13765;BME280;6953;48.810;9.204;2023-02-14T04:39:21;100615.38;;;0.35;100.00
13765;BME280;6953;48.810;9.204;2023-02-14T04:41:47;100370.09;;;-1.15;100.00
13765;BME280;6953;48.810;9.204;2023-02-14T04:44:12;100584.06;;;0.17;100.00
13765;BME280;6953;48.810;9.204;2023-02-14T04:46:37;100617.84;;;0.29;100.00
13765;BME280;6953;48.810;9.204;2023-02-14T04:49:02;100568.81;;;-0.15;100.00
13765;BME280;6953;48.810;9.204;2023-02-14T04:51:28;100618.53;;;0.21;100.00
13765;BME280;6953;48.810;9.204;2023-02-14T04:53:53;100624.50;;;0.18;100.00
13765;BME280;6953;48.810;9.204;2023-02-14T04:56:18;100624.50;;;0.17;100.00
13765;BME280;6953;48.810;9.204;2023-02-14T04:58:44;100666.69;;;0.19;100.00
13765;BME280;6953;48.810;9.204;2023-02-14T05:01:09;100615.09;;;0.20;100.00
13765;BME280;6953;48.810;9.204;2023-02-14T05:03:35;100596.81;;;0.10;100.00
13765;BME280;6953;48.810;9.204;2023-02-14T05:06:00;100566.91;;;-0.25;100.00
13765;BME280;6953;48.810;9.204;2023-02-14T05:08:25;100611.59;;;0.18;100.00
13765;BME280;6953;48.810;9.204;2023-02-14T05:10:51;100615.91;;;0.18;100.00
13765;BME280;6953;48.810;9.204;2023-02-14T05:13:16;100612.50;;;0.19;100.00
13765;BME280;6953;48.810;9.204;2023-02-14T05:15:43;100610.78;;;0.19;100.00
13765;BME280;6953;48.810;9.204;2023-02-14T05:18:09;100610.69;;;0.16;100.00
13765;BME280;6953;48.810;9.204;2023-02-14T05:20:34;100357.75;;;-1.33;100.00
13765;BME280;6953;48.810;9.204;2023-02-14T05:22:59;100615.00;;;0.16;100.00
13765;BME280;6953;48.810;9.204;2023-02-14T05:25:28;100611.53;;;0.15;100.00
13765;BME280;6953;48.810;9.204;2023-02-14T05:27:54;100328.94;;;-1.55;100.00
13765;BME280;6953;48.810;9.204;2023-02-14T05:30:20;100613.91;;;0.03;100.00
13765;BME280;6953;48.810;9.204;2023-02-14T05:32:50;100499.03;;;-0.67;100.00
13765;BME280;6953;48.810;9.204;2023-02-14T05:35:16;100608.69;;;0.02;100.00
13765;BME280;6953;48.810;9.204;2023-02-14T05:37:41;100649.19;;;0.04;100.00
13765;BME280;6953;48.810;9.204;2023-02-14T05:40:07;100634.59;;;0.06;100.00
13765;BME280;6953;48.810;9.204;2023-02-14T05:42:33;100594.75;;;-0.07;100.00
13765;BME280;6953;48.810;9.204;2023-02-14T05:44:58;100566.03;;;-0.25;100.00
13765;BME280;6953;48.810;9.204;2023-02-14T05:47:24;100614.69;;;-0.01;100.00
13765;BME280;6953;48.810;9.204;2023-02-14T05:49:49;100601.56;;;-0.12;100.00
13765;BME280;6953;48.810;9.204;2023-02-14T05:52:14;100618.16;;;0.00;100.00
13765;BME280;6953;48.810;9.204;2023-02-14T05:54:41;100350.19;;;-1.64;100.00
13765;BME280;6953;48.810;9.204;2023-02-14T05:57:06;100608.38;;;-0.14;100.00
13765;BME280;6953;48.810;9.204;2023-02-14T05:59:32;100625.69;;;-0.09;100.00
13765;BME280;6953;48.810;9.204;2023-02-14T06:01:57;100635.03;;;-0.14;100.00
13765;BME280;6953;48.810;9.204;2023-02-14T06:04:22;100630.66;;;-0.18;100.00
13765;BME280;6953;48.810;9.204;2023-02-14T06:06:48;100401.06;;;-1.52;100.00
13765;BME280;6953;48.810;9.204;2023-02-14T06:09:13;100625.56;;;-0.15;100.00
13765;BME280;6953;48.810;9.204;2023-02-14T06:11:39;100407.88;;;-1.54;100.00
13765;BME280;6953;48.810;9.204;2023-02-14T06:14:04;100566.25;;;-0.56;100.00
13765;BME280;6953;48.810;9.204;2023-02-14T06:16:30;100644.34;;;-0.20;100.00
13765;BME280;6953;48.810;9.204;2023-02-14T06:18:55;100513.84;;;-0.97;100.00
13765;BME280;6953;48.810;9.204;2023-02-14T06:21:20;100418.25;;;-1.50;100.00
13765;BME280;6953;48.810;9.204;2023-02-14T06:23:46;100568.75;;;-0.59;100.00
13765;BME280;6953;48.810;9.204;2023-02-14T06:26:11;100507.09;;;-0.92;100.00
13765;BME280;6953;48.810;9.204;2023-02-14T06:28:36;100635.81;;;-0.18;100.00
13765;BME280;6953;48.810;9.204;2023-02-14T06:31:02;100334.88;;;-1.96;100.00
13765;BME280;6953;48.810;9.204;2023-02-14T06:33:27;100228.94;;;-2.58;100.00
13765;BME280;6953;48.810;9.204;2023-02-14T06:35:53;100362.50;;;-1.88;100.00
13765;BME280;6953;48.810;9.204;2023-02-14T06:38:18;100644.38;;;-0.19;100.00
13765;BME280;6953;48.810;9.204;2023-02-14T06:40:43;100672.03;;;-0.12;100.00
13765;BME280;6953;48.810;9.204;2023-02-14T06:43:09;100342.00;;;-1.86;100.00
13765;BME280;6953;48.810;9.204;2023-02-14T06:45:35;100645.44;;;-0.09;100.00
13765;BME280;6953;48.810;9.204;2023-02-14T06:48:00;100659.75;;;-0.23;100.00
13765;BME280;6953;48.810;9.204;2023-02-14T06:50:26;100656.78;;;-0.03;100.00
13765;BME280;6953;48.810;9.204;2023-02-14T06:52:51;100306.59;;;-1.98;100.00
13765;BME280;6953;48.810;9.204;2023-02-14T06:55:17;100335.28;;;-1.78;100.00
13765;BME280;6953;48.810;9.204;2023-02-14T06:57:43;100616.06;;;-0.17;100.00
13765;BME280;6953;48.810;9.204;2023-02-14T07:00:10;100656.25;;;0.14;100.00
13765;BME280;6953;48.810;9.204;2023-02-14T07:02:35;100557.28;;;-0.33;100.00
13765;BME280;6953;48.810;9.204;2023-02-14T07:05:01;100611.47;;;0.11;100.00
13765;BME280;6953;48.810;9.204;2023-02-14T07:07:26;100626.44;;;0.28;100.00
13765;BME280;6953;48.810;9.204;2023-02-14T07:09:51;100637.88;;;0.44;100.00
13765;BME280;6953;48.810;9.204;2023-02-14T07:12:17;100638.06;;;0.53;100.00
13765;BME280;6953;48.810;9.204;2023-02-14T07:14:42;100638.13;;;0.57;100.00
13765;BME280;6953;48.810;9.204;2023-02-14T07:17:07;100323.81;;;-1.14;100.00
13765;BME280;6953;48.810;9.204;2023-02-14T07:19:33;100631.56;;;0.74;100.00
13765;BME280;6953;48.810;9.204;2023-02-14T07:21:58;100310.28;;;-1.02;100.00
13765;BME280;6953;48.810;9.204;2023-02-14T07:24:24;100319.09;;;-0.90;100.00
13765;BME280;6953;48.810;9.204;2023-02-14T07:26:49;100368.81;;;-0.48;100.00
13765;BME280;6953;48.810;9.204;2023-02-14T07:29:14;100369.03;;;-0.35;100.00
13765;BME280;6953;48.810;9.204;2023-02-14T07:31:40;100526.47;;;0.70;100.00
13765;BME280;6953;48.810;9.204;2023-02-14T07:34:05;100545.81;;;0.96;100.00
13765;BME280;6953;48.810;9.204;2023-02-14T07:36:30;100635.53;;;1.64;100.00
13765;BME280;6953;48.810;9.204;2023-02-14T07:38:56;100538.50;;;1.26;100.00
13765;BME280;6953;48.810;9.204;2023-02-14T07:41:22;100460.44;;;0.87;100.00
13765;BME280;6953;48.810;9.204;2023-02-14T07:43:47;100518.00;;;1.39;100.00
13765;BME280;6953;48.810;9.204;2023-02-14T07:46:12;100625.75;;;2.07;100.00
13765;BME280;6953;48.810;9.204;2023-02-14T07:48:38;100627.72;;;2.29;100.00
13765;BME280;6953;48.810;9.204;2023-02-14T07:51:03;100348.34;;;0.76;100.00
13765;BME280;6953;48.810;9.204;2023-02-14T07:53:29;100628.88;;;2.53;100.00
13765;BME280;6953;48.810;9.204;2023-02-14T07:55:55;100627.25;;;2.64;100.00
13765;BME280;6953;48.810;9.204;2023-02-14T07:58:20;100622.97;;;2.71;100.00
13765;BME280;6953;48.810;9.204;2023-02-14T08:00:45;100552.75;;;2.38;100.00
13765;BME280;6953;48.810;9.204;2023-02-14T08:03:12;100326.47;;;1.18;100.00
13765;BME280;6953;48.810;9.204;2023-02-14T08:05:37;100630.16;;;3.00;100.00
13765;BME280;6953;48.810;9.204;2023-02-14T08:08:03;100655.31;;;3.11;100.00
13765;BME280;6953;48.810;9.204;2023-02-14T08:10:28;100619.91;;;3.15;100.00
13765;BME280;6953;48.810;9.204;2023-02-14T08:12:53;100266.91;;;1.09;100.00
13765;BME280;6953;48.810;9.204;2023-02-14T08:15:33;100613.94;;;3.23;100.00
13765;BME280;6953;48.810;9.204;2023-02-14T08:18:18;100614.00;;;3.34;100.00
13765;BME280;6953;48.810;9.204;2023-02-14T08:20:45;100572.38;;;3.17;100.00
13765;BME280;6953;48.810;9.204;2023-02-14T08:23:12;100584.56;;;3.30;100.00
13765;BME280;6953;48.810;9.204;2023-02-14T08:25:38;100592.44;;;3.47;100.00
13765;BME280;6953;48.810;9.204;2023-02-14T08:28:04;100626.25;;;3.56;100.00
13765;BME280;6953;48.810;9.204;2023-02-14T08:30:30;100654.09;;;3.85;100.00
13765;BME280;6953;48.810;9.204;2023-02-14T08:32:55;100524.94;;;3.35;100.00
13765;BME280;6953;48.810;9.204;2023-02-14T08:35:21;100524.13;;;3.49;100.00
13765;BME280;6953;48.810;9.204;2023-02-14T08:37:46;100590.13;;;4.05;100.00
13765;BME280;6953;48.810;9.204;2023-02-14T08:40:11;100610.94;;;4.24;100.00
13765;BME280;6953;48.810;9.204;2023-02-14T08:42:37;100642.16;;;4.39;100.00
13765;BME280;6953;48.810;9.204;2023-02-14T08:45:03;100500.94;;;3.93;100.00
13765;BME280;6953;48.810;9.204;2023-02-14T08:47:30;100339.84;;;3.13;100.00
13765;BME280;6953;48.810;9.204;2023-02-14T08:50:00;100325.22;;;4.36;100.00
13765;BME280;6953;48.810;9.204;2023-02-14T08:52:26;100568.91;;;8.24;95.56
13765;BME280;6953;48.810;9.204;2023-02-14T08:54:51;100557.00;;;10.81;78.80
13765;BME280;6953;48.810;9.204;2023-02-14T08:57:17;100444.44;;;11.92;69.56
13765;BME280;6953;48.810;9.204;2023-02-14T08:59:43;100363.13;;;13.13;59.84
13765;BME280;6953;48.810;9.204;2023-02-14T09:02:11;100581.50;;;13.73;58.68
13765;BME280;6953;48.810;9.204;2023-02-14T09:04:37;100604.66;;;13.90;55.89
13765;BME280;6953;48.810;9.204;2023-02-14T09:07:03;100549.38;;;15.40;49.31
13765;BME280;6953;48.810;9.204;2023-02-14T09:09:28;100604.28;;;17.77;42.85
13765;BME280;6953;48.810;9.204;2023-02-14T09:11:54;100604.16;;;19.53;37.65
13765;BME280;6953;48.810;9.204;2023-02-14T09:14:20;100591.50;;;20.43;33.41
13765;BME280;6953;48.810;9.204;2023-02-14T09:16:46;100617.84;;;20.75;32.21
13765;BME280;6953;48.810;9.204;2023-02-14T09:19:11;100599.63;;;20.96;31.44
13765;BME280;6953;48.810;9.204;2023-02-14T09:21:36;100610.44;;;21.98;30.40
13765;BME280;6953;48.810;9.204;2023-02-14T09:24:02;100627.13;;;22.89;28.24
13765;BME280;6953;48.810;9.204;2023-02-14T09:26:27;100415.03;;;22.49;27.92
13765;BME280;6953;48.810;9.204;2023-02-14T09:28:53;100612.66;;;23.74;26.67
13765;BME280;6953;48.810;9.204;2023-02-14T09:31:21;100572.19;;;23.42;25.89
13765;BME280;6953;48.810;9.204;2023-02-14T09:33:48;100414.47;;;22.57;26.56
13765;BME280;6953;48.810;9.204;2023-02-14T09:36:14;100615.19;;;24.66;24.83
13765;BME280;6953;48.810;9.204;2023-02-14T09:38:58;100618.00;;;24.75;24.01
13765;BME280;6953;48.810;9.204;2023-02-14T09:41:32;100630.78;;;25.05;24.13
13765;BME280;6953;48.810;9.204;2023-02-14T09:44:07;100593.06;;;25.48;23.42
13765;BME280;6953;48.810;9.204;2023-02-14T09:46:40;100608.72;;;25.86;22.53
13765;BME280;6953;48.810;9.204;2023-02-14T09:49:12;100603.47;;;26.05;22.69
13765;BME280;6953;48.810;9.204;2023-02-14T09:51:45;100417.47;;;24.96;22.67
13765;BME280;6953;48.810;9.204;2023-02-14T09:54:17;100530.06;;;26.33;21.61
13765;BME280;6953;48.810;9.204;2023-02-14T09:59:34;100622.09;;;27.46;19.98
13765;BME280;6953;48.810;9.204;2023-02-14T10:04:33;100622.38;;;27.34;20.26
13765;BME280;6953;48.810;9.204;2023-02-14T10:12:18;100587.31;;;29.01;18.88
13765;BME280;6953;48.810;9.204;2023-02-14T10:14:46;100594.66;;;29.08;18.50
13765;BME280;6953;48.810;9.204;2023-02-14T10:17:22;100472.75;;;28.48;17.99
13765;BME280;6953;48.810;9.204;2023-02-14T10:20:17;100615.44;;;28.71;18.55
13765;BME280;6953;48.810;9.204;2023-02-14T10:22:51;100593.78;;;28.81;18.75
13765;BME280;6953;48.810;9.204;2023-02-14T10:25:23;100578.66;;;29.42;18.26
13765;BME280;6953;48.810;9.204;2023-02-14T10:27:49;100460.66;;;29.14;17.63
13765;BME280;6953;48.810;9.204;2023-02-14T10:30:19;100425.50;;;27.98;18.17
13765;BME280;6953;48.810;9.204;2023-02-14T10:32:48;100604.16;;;28.85;18.19
13765;BME280;6953;48.810;9.204;2023-02-14T10:46:57;100543.63;;;29.40;17.59
13765;BME280;6953;48.810;9.204;2023-02-14T10:52:10;100370.91;;;28.93;17.18
13765;BME280;6953;48.810;9.204;2023-02-14T10:54:42;100517.63;;;31.07;16.24
13765;BME280;6953;48.810;9.204;2023-02-14T11:00:04;100584.44;;;31.82;15.57
13765;BME280;6953;48.810;9.204;2023-02-14T11:02:35;100576.78;;;31.85;15.82
13765;BME280;6953;48.810;9.204;2023-02-14T11:05:02;100530.25;;;32.04;15.45
13765;BME280;6953;48.810;9.204;2023-02-14T11:07:28;100582.22;;;31.77;15.29
13765;BME280;6953;48.810;9.204;2023-02-14T11:09:55;100572.38;;;31.92;15.92
13765;BME280;6953;48.810;9.204;2023-02-14T11:12:31;100383.94;;;30.16;16.38
13765;BME280;6953;48.810;9.204;2023-02-14T11:17:46;100456.06;;;32.88;14.13
13765;BME280;6953;48.810;9.204;2023-02-14T11:22:38;100377.44;;;32.93;14.09
13765;BME280;6953;48.810;9.204;2023-02-14T11:25:23;100546.34;;;34.63;14.24
13765;BME280;6953;48.810;9.204;2023-02-14T11:27:56;100346.78;;;34.02;13.92
13765;BME280;6953;48.810;9.204;2023-02-14T11:32:52;100552.25;;;35.87;13.02
13765;BME280;6953;48.810;9.204;2023-02-14T11:35:22;100556.63;;;35.46;12.87
13765;BME280;6953;48.810;9.204;2023-02-14T11:37:53;100525.97;;;34.94;13.42
13765;BME280;6953;48.810;9.204;2023-02-14T11:40:35;100489.53;;;35.02;13.23
13765;BME280;6953;48.810;9.204;2023-02-14T11:43:18;100520.53;;;34.94;13.34
13765;BME280;6953;48.810;9.204;2023-02-14T11:45:46;100509.31;;;35.60;12.70
13765;BME280;6953;48.810;9.204;2023-02-14T11:51:09;100512.50;;;36.12;12.48
13765;BME280;6953;48.810;9.204;2023-02-14T11:53:53;100350.28;;;35.02;12.33
13765;BME280;6953;48.810;9.204;2023-02-14T11:56:21;100361.53;;;34.71;13.31
13765;BME280;6953;48.810;9.204;2023-02-14T11:58:53;100317.00;;;34.00;13.24
13765;BME280;6953;48.810;9.204;2023-02-14T12:01:25;100482.81;;;34.54;13.63
13765;BME280;6953;48.810;9.204;2023-02-14T12:03:53;100484.06;;;34.23;13.83
13765;BME280;6953;48.810;9.204;2023-02-14T12:06:34;100492.06;;;33.88;14.13
13765;BME280;6953;48.810;9.204;2023-02-14T12:11:36;100342.44;;;32.37;14.50
13765;BME280;6953;48.810;9.204;2023-02-14T12:14:02;100464.50;;;33.68;14.47
13765;BME280;6953;48.810;9.204;2023-02-14T12:16:33;100400.34;;;33.80;14.39
13765;BME280;6953;48.810;9.204;2023-02-14T12:19:05;100287.91;;;33.72;14.08
13765;BME280;6953;48.810;9.204;2023-02-14T12:26:44;100324.34;;;34.49;13.57
13765;BME280;6953;48.810;9.204;2023-02-14T12:29:28;100218.00;;;34.00;13.08
13765;BME280;6953;48.810;9.204;2023-02-14T12:32:01;100455.88;;;34.80;13.90
13765;BME280;6953;48.810;9.204;2023-02-14T12:34:27;100452.44;;;34.93;13.45
13765;BME280;6953;48.810;9.204;2023-02-14T12:36:59;100469.84;;;35.06;13.56
13765;BME280;6953;48.810;9.204;2023-02-14T12:42:12;100461.88;;;35.67;13.20
13765;BME280;6953;48.810;9.204;2023-02-14T12:44:55;100408.88;;;35.68;12.72
13765;BME280;6953;48.810;9.204;2023-02-14T12:50:33;100446.97;;;34.00;14.21
13765;BME280;6953;48.810;9.204;2023-02-14T12:53:15;100414.75;;;33.89;14.50
13765;BME280;6953;48.810;9.204;2023-02-14T12:55:53;100433.06;;;34.09;14.26
13765;BME280;6953;48.810;9.204;2023-02-14T13:03:43;100416.78;;;33.72;14.77
13765;BME280;6953;48.810;9.204;2023-02-14T13:06:22;100353.50;;;33.48;14.93
13765;BME280;6953;48.810;9.204;2023-02-14T13:12:09;100397.22;;;32.26;15.45
13765;BME280;6953;48.810;9.204;2023-02-14T13:22:33;100156.03;;;30.43;16.22
13765;BME280;6953;48.810;9.204;2023-02-14T13:25:04;100171.25;;;30.84;16.49
13765;BME280;6953;48.810;9.204;2023-02-14T13:27:32;100349.34;;;32.17;16.08
13765;BME280;6953;48.810;9.204;2023-02-14T13:30:04;100381.50;;;32.44;15.63
13765;BME280;6953;48.810;9.204;2023-02-14T13:32:36;100315.84;;;31.87;15.78
13765;BME280;6953;48.810;9.204;2023-02-14T13:35:03;100362.09;;;30.91;16.99
13765;BME280;6953;48.810;9.204;2023-02-14T13:37:30;100165.53;;;26.81;19.32
13765;BME280;6953;48.810;9.204;2023-02-14T13:40:07;100348.41;;;25.08;22.76
13765;BME280;6953;48.810;9.204;2023-02-14T13:48:04;100063.16;;;17.53;33.62
13765;BME280;6953;48.810;9.204;2023-02-14T13:50:37;100290.53;;;17.98;36.73
13765;BME280;6953;48.810;9.204;2023-02-14T13:53:03;100031.50;;;15.78;38.82
13765;BME280;6953;48.810;9.204;2023-02-14T13:55:36;100263.25;;;16.53;40.79
13765;BME280;6953;48.810;9.204;2023-02-14T13:58:14;100285.34;;;16.01;43.35
13765;BME280;6953;48.810;9.204;2023-02-14T14:00:42;100317.31;;;15.43;45.87
13765;BME280;6953;48.810;9.204;2023-02-14T14:03:14;100207.59;;;14.58;47.31
13765;BME280;6953;48.810;9.204;2023-02-14T14:05:48;100271.78;;;14.60;49.07
13765;BME280;6953;48.810;9.204;2023-02-14T14:11:11;100326.19;;;14.24;51.72
13765;BME280;6953;48.810;9.204;2023-02-14T14:21:44;100294.28;;;13.43;55.91
13765;BME280;6953;48.810;9.204;2023-02-14T14:25:09;100207.97;;;12.81;55.92
13765;BME280;6953;48.810;9.204;2023-02-14T14:27:22;100002.53;;;11.45;57.20
13765;BME280;6953;48.810;9.204;2023-02-14T14:29:54;100290.13;;;12.92;58.10
13765;BME280;6953;48.810;9.204;2023-02-14T14:32:28;100295.03;;;12.76;58.83
13765;BME280;6953;48.810;9.204;2023-02-14T14:35:00;100211.78;;;12.25;59.35
13765;BME280;6953;48.810;9.204;2023-02-14T14:37:35;100260.84;;;12.52;60.69
13765;BME280;6953;48.810;9.204;2023-02-14T14:40:06;100050.59;;;11.23;60.48
13765;BME280;6953;48.810;9.204;2023-02-14T14:42:36;100266.47;;;12.42;61.35
13765;BME280;6953;48.810;9.204;2023-02-14T14:45:17;100273.41;;;12.44;61.67
13765;BME280;6953;48.810;9.204;2023-02-14T14:47:44;100223.84;;;12.08;62.04
13765;BME280;6953;48.810;9.204;2023-02-14T14:50:32;100269.50;;;12.31;62.99
13765;BME280;6953;48.810;9.204;2023-02-14T14:56:17;100291.34;;;12.09;64.36
13765;BME280;6953;48.810;9.204;2023-02-14T14:58:43;100251.50;;;11.93;64.60
13765;BME280;6953;48.810;9.204;2023-02-14T15:01:26;100277.66;;;11.98;64.95
13765;BME280;6953;48.810;9.204;2023-02-14T15:03:52;100265.69;;;11.89;65.35
13765;BME280;6953;48.810;9.204;2023-02-14T15:06:20;100253.03;;;11.74;65.60
13765;BME280;6953;48.810;9.204;2023-02-14T15:08:47;100288.78;;;11.80;65.91
13765;BME280;6953;48.810;9.204;2023-02-14T15:11:21;100262.09;;;11.66;66.46
13765;BME280;6953;48.810;9.204;2023-02-14T15:14:21;100266.44;;;11.67;66.83
13765;BME280;6953;48.810;9.204;2023-02-14T15:16:49;100010.50;;;10.11;66.99
13765;BME280;6953;48.810;9.204;2023-02-14T15:19:32;100273.75;;;11.57;67.39